Time;durP1;ratioP1;P1;durP2;ratioP2;P2;SDS_P1;SDS_P2;PMS_P1;PMS_P2;Temp;Humidity;BMP_temperature;BMP_pressure;BME280_temperature;BME280_humidity;BME280_pressure;Samples;Min_cycle;Max_cycle;Signal;HPM_P1;HPM_P2
2022/10/17 00:01:37;;;;;;;;;6.67;6.67;;;;;21.16;83.09;-16011.63;4983609;28;45564;-72
2022/10/17 00:04:02;;;;;;;;;5.67;5.67;;;;;21.20;82.88;-16157.06;4990528;27;45390;-72
2022/10/17 00:06:28;;;;;;;;;6.33;5.33;;;;;21.12;83.52;-16013.44;5027066;27;47288;-73
2022/10/17 00:08:53;;;;;;;;;9.00;7.00;;;;;21.05;83.46;-16119.88;4977982;28;45477;-72
2022/10/17 00:11:22;;;;;;;;;13.33;7.00;;;;;21.21;83.32;-16102.00;4981495;27;45284;-72
2022/10/17 00:13:48;;;;;;;;;7.00;7.00;;;;;21.20;83.34;-16243.91;4975559;27;45359;-72
2022/10/17 00:16:15;;;;;;;;;6.00;5.67;;;;;21.21;83.43;-16238.97;4984536;28;46144;-73
2022/10/17 00:18:40;;;;;;;;;8.00;6.00;;;;;21.25;82.61;-16292.31;4995328;27;45449;-73
2022/10/17 00:21:13;;;;;;;;;6.00;6.00;;;;;21.25;82.97;-16444.94;4984633;27;45523;-73
2022/10/17 00:23:38;;;;;;;;;5.00;5.00;;;;;21.25;82.50;-16494.94;4992652;28;45435;-73
2022/10/17 00:26:05;;;;;;;;;6.67;6.00;;;;;21.27;82.93;-16529.59;4986125;27;46162;-73
2022/10/17 00:28:32;;;;;;;;;6.67;6.00;;;;;21.19;82.54;-16443.69;4987329;27;45355;-73
2022/10/17 00:31:00;;;;;;;;;7.00;5.67;;;;;21.26;82.41;-16460.94;4995945;27;45623;-73
2022/10/17 00:33:26;;;;;;;;;5.00;5.00;;;;;21.26;82.23;-16682.00;4994452;28;45527;-73
2022/10/17 00:36:07;;;;;;;;;5.67;5.67;;;;;21.17;82.66;-16701.09;4986645;27;46331;-72
2022/10/17 00:38:33;;;;;;;;;8.33;5.33;;;;;21.28;82.31;-16690.31;5000984;27;45541;-73
2022/10/17 00:40:58;;;;;;;;;6.33;6.33;;;;;21.27;82.03;-16924.28;4983084;28;46713;-73
2022/10/17 00:43:23;;;;;;;;;5.67;5.67;;;;;21.20;82.55;-16659.66;4991337;28;45612;-73
2022/10/17 00:45:49;;;;;;;;;6.33;5.00;;;;;21.25;81.72;-16966.06;4995013;27;46135;-73
2022/10/17 00:48:15;;;;;;;;;8.00;5.33;;;;;21.29;81.80;-17114.19;4986592;27;45375;-73
2022/10/17 00:50:45;;;;;;;;;7.33;5.00;;;;;21.20;81.90;-16954.44;4997618;27;45399;-73
2022/10/17 00:53:10;;;;;;;;;7.00;7.00;;;;;21.31;81.65;-17054.00;4993706;27;45544;-72
2022/10/17 00:55:43;;;;;;;;;6.00;5.00;;;;;21.29;81.74;-17506.31;4992988;27;45787;-73
2022/10/17 00:58:09;;;;;;;;;8.67;6.00;;;;;21.21;81.62;-17367.69;4992601;27;45533;-73
2022/10/17 01:00:35;;;;;;;;;5.00;5.00;;;;;21.20;81.40;-17467.31;4977783;28;45539;-74
2022/10/17 01:03:01;;;;;;;;;6.00;6.00;;;;;21.33;81.62;-17580.66;5008137;27;45473;-74
2022/10/17 01:05:27;;;;;;;;;5.33;5.33;;;;;21.22;81.09;-17551.94;4995306;27;47197;-74
2022/10/17 01:07:53;;;;;;;;;7.00;4.00;;;;;21.35;81.37;-17515.34;4991391;27;45569;-74
2022/10/17 01:10:19;;;;;;;;;5.67;5.00;;;;;21.34;81.25;-17649.41;4991527;27;45417;-74
2022/10/17 01:13:11;;;;;;;;;5.00;5.00;;;;;21.38;81.08;-17650.34;4983275;27;45579;-74
2022/10/17 01:16:08;;;;;;;;;5.67;5.00;;;;;21.39;81.17;-17937.25;4990157;27;45608;-74
2022/10/17 01:19:21;;;;;;;;;6.00;6.00;;;;;21.40;80.41;-18382.25;4977173;27;45378;-74
2022/10/17 01:22:21;;;;;;;;;6.00;5.67;;;;;21.31;81.26;-18035.44;4947477;28;45395;-74
2022/10/17 01:25:18;;;;;;;;;6.33;4.67;;;;;21.18;81.16;-17698.31;4971438;28;45545;-74
2022/10/17 01:28:17;;;;;;;;;5.33;5.33;;;;;21.26;81.46;-17579.28;4949139;28;46770;-74
2022/10/17 01:31:10;;;;;;;;;6.00;6.00;;;;;21.21;81.06;-17478.16;4954038;28;45420;-74
2022/10/17 01:33:58;;;;;;;;;5.00;5.00;;;;;21.21;80.97;-17446.59;4949482;28;45387;-74
2022/10/17 01:36:59;;;;;;;;;5.00;5.00;;;;;20.90;80.98;-17534.28;4946017;28;45623;-74
2022/10/17 01:39:43;;;;;;;;;7.00;7.00;;;;;21.21;81.33;-17222.88;4962815;28;45996;-74
2022/10/17 01:42:32;;;;;;;;;4.00;4.00;;;;;21.20;81.63;-17504.25;4951338;28;45760;-74
2022/10/17 01:45:08;;;;;;;;;6.00;6.00;;;;;21.14;81.12;-17481.84;4959337;28;45805;-74
2022/10/17 01:47:33;;;;;;;;;5.00;5.00;;;;;21.36;81.24;-17923.41;4954665;28;45475;-74
2022/10/17 01:50:28;;;;;;;;;6.33;4.00;;;;;21.38;80.42;-18323.75;4961471;28;47137;-74
2022/10/17 01:52:59;;;;;;;;;8.00;7.00;;;;;21.30;80.59;-18198.31;4982807;27;45426;-74
2022/10/17 01:55:31;;;;;;;;;4.67;4.67;;;;;21.22;80.99;-17978.06;4964383;28;45646;-74
2022/10/17 01:58:06;;;;;;;;;6.33;4.33;;;;;21.24;80.48;-17973.41;4983359;27;45465;-74
2022/10/17 02:00:34;;;;;;;;;7.00;6.00;;;;;21.24;81.21;-17981.28;4978174;28;45370;-74
2022/10/17 02:03:06;;;;;;;;;4.33;4.33;;;;;21.27;80.91;-18042.38;4988422;27;45409;-74
2022/10/17 02:05:36;;;;;;;;;5.00;5.00;;;;;21.23;80.70;-18193.97;4986401;28;45840;-74
2022/10/17 02:08:02;;;;;;;;;7.00;6.33;;;;;21.26;80.29;-18376.31;4974769;28;45784;-74
2022/10/17 02:10:40;;;;;;;;;6.33;6.00;;;;;21.10;80.37;-18319.72;4992041;27;45480;-74
2022/10/17 02:13:15;;;;;;;;;4.67;4.67;;;;;21.22;80.68;-18367.44;4978834;27;45409;-74
2022/10/17 02:15:49;;;;;;;;;4.33;4.33;;;;;21.26;80.01;-18405.13;4980262;28;45414;-74
2022/10/17 02:18:29;;;;;;;;;5.67;4.67;;;;;21.21;80.06;-18669.53;4990797;27;46811;-74
2022/10/17 02:21:01;;;;;;;;;5.00;5.00;;;;;21.27;80.09;-18665.88;4976316;28;47561;-74
2022/10/17 02:23:45;;;;;;;;;4.00;4.00;;;;;21.25;80.07;-18696.94;4962654;28;45524;-75
2022/10/17 02:26:40;;;;;;;;;8.00;6.00;;;;;21.22;79.78;-18817.03;4983787;27;45551;-75
2022/10/17 02:29:20;;;;;;;;;6.33;4.67;;;;;21.15;80.38;-18812.66;4981208;27;45299;-74
2022/10/17 02:32:04;;;;;;;;;5.67;5.00;;;;;21.23;80.35;-18946.25;4989219;27;46298;-75
2022/10/17 02:34:41;;;;;;;;;1.67;1.67;;;;;21.22;79.85;-19014.25;4987275;27;45579;-74
2022/10/17 02:37:10;;;;;;;;;6.33;5.33;;;;;21.20;80.19;-19166.25;4996171;27;45446;-74
2022/10/17 02:39:38;;;;;;;;;7.33;6.00;;;;;21.17;80.10;-19212.94;4993261;27;45580;-75
2022/10/17 02:42:08;;;;;;;;;6.00;5.00;;;;;21.16;79.73;-19131.03;4992001;27;46414;-75
2022/10/17 02:44:36;;;;;;;;;3.00;3.00;;;;;21.14;79.73;-19291.03;4997163;27;45528;-75
2022/10/17 02:47:16;;;;;;;;;3.67;3.67;;;;;21.11;79.82;-19198.25;5005406;27;45512;-74
2022/10/17 02:49:54;;;;;;;;;5.00;4.67;;;;;21.12;79.47;-19232.56;5001194;27;45445;-75
2022/10/17 02:52:24;;;;;;;;;7.00;5.00;;;;;21.12;79.29;-19201.00;4984286;27;46557;-74
2022/10/17 02:54:57;;;;;;;;;6.00;6.00;;;;;21.11;79.80;-19274.38;4989227;27;45796;-74
2022/10/17 02:57:51;;;;;;;;;4.00;4.00;;;;;21.18;78.99;-19628.47;4995233;27;45406;-75
2022/10/17 03:00:18;;;;;;;;;5.00;5.00;;;;;21.10;78.91;-19634.38;4992865;27;46276;-74
2022/10/17 03:02:46;;;;;;;;;5.00;5.00;;;;;21.10;79.28;-19681.56;4975319;28;47199;-74
2022/10/17 03:05:20;;;;;;;;;8.00;5.33;;;;;21.06;79.56;-19688.50;4994650;28;46090;-75
2022/10/17 03:07:46;;;;;;;;;4.67;4.33;;;;;21.03;79.32;-19714.00;4993462;27;45477;-75
2022/10/17 03:10:11;;;;;;;;;3.33;3.00;;;;;21.06;78.54;-19769.34;4992916;27;45353;-75
2022/10/17 03:12:37;;;;;;;;;6.67;4.00;;;;;21.04;78.44;-19768.81;4990373;27;45418;-74
2022/10/17 03:15:03;;;;;;;;;4.33;4.33;;;;;21.02;79.14;-19768.41;4988897;27;45509;-74
2022/10/17 03:17:28;;;;;;;;;5.33;5.33;;;;;20.98;78.46;-19767.22;4989926;28;45392;-75
2022/10/17 03:19:53;;;;;;;;;4.33;4.33;;;;;20.99;78.39;-19767.59;5001415;27;45492;-75
2022/10/17 03:22:19;;;;;;;;;4.00;4.00;;;;;21.01;78.64;-19768.00;4969026;28;45421;-74
2022/10/17 03:24:44;;;;;;;;;4.67;3.00;;;;;20.96;78.55;-19766.69;5006070;27;45527;-75
2022/10/17 03:27:10;;;;;;;;;6.00;5.00;;;;;20.83;78.16;-19763.34;4983494;28;45481;-74
2022/10/17 03:29:35;;;;;;;;;5.00;5.00;;;;;20.93;78.26;-19766.00;4993815;28;45298;-75
2022/10/17 03:32:00;;;;;;;;;4.33;4.00;;;;;20.78;78.48;-19762.16;4993827;27;46879;-75
2022/10/17 03:34:26;;;;;;;;;3.00;3.00;;;;;20.90;78.46;-19765.22;5004144;27;45308;-75
2022/10/17 03:36:51;;;;;;;;;7.00;6.00;;;;;20.89;78.82;-19764.94;4982808;27;45502;-75
2022/10/17 03:39:16;;;;;;;;;4.00;2.00;;;;;20.90;79.05;-19765.06;4990856;27;45788;-75
2022/10/17 03:41:42;;;;;;;;;3.00;3.00;;;;;20.86;78.78;-19764.13;4994248;28;47028;-74
2022/10/17 03:44:07;;;;;;;;;2.67;2.67;;;;;21.01;78.10;-19768.00;4986442;28;45431;-74
2022/10/17 03:46:32;;;;;;;;;2.00;2.00;;;;;20.81;78.57;-19762.81;4993527;27;45819;-75
2022/10/17 03:48:58;;;;;;;;;3.67;3.67;;;;;20.80;78.56;-19762.53;5006542;27;45402;-75
2022/10/17 03:51:23;;;;;;;;;5.00;5.00;;;;;20.94;78.50;-19766.13;4989426;28;45828;-74
2022/10/17 03:53:49;;;;;;;;;5.33;5.33;;;;;20.78;78.38;-19762.16;4990322;27;45426;-75
2022/10/17 03:56:21;;;;;;;;;5.00;5.00;;;;;20.93;78.57;-19766.00;4985080;27;45381;-75
2022/10/17 03:58:47;;;;;;;;;4.67;4.67;;;;;20.89;78.64;-19764.94;4994196;27;45396;-75
2022/10/17 04:01:14;;;;;;;;;4.00;4.00;;;;;20.79;77.78;-19762.41;4992137;27;45502;-75
2022/10/17 04:03:40;;;;;;;;;4.00;4.00;;;;;20.72;78.34;-19760.41;4994117;27;45385;-75
2022/10/17 04:06:06;;;;;;;;;7.00;6.00;;;;;20.97;78.10;-19766.94;5023349;27;45413;-75
2022/10/17 04:08:33;;;;;;;;;4.00;4.00;;;;;20.88;78.26;-19764.69;5004421;27;45459;-75
2022/10/17 04:11:03;;;;;;;;;4.00;4.00;;;;;20.83;78.03;-19763.47;4997908;27;46016;-74
2022/10/17 04:13:29;;;;;;;;;5.00;4.00;;;;;20.91;78.07;-19765.47;4995578;28;45735;-75
2022/10/17 04:15:56;;;;;;;;;6.00;5.00;;;;;20.91;77.69;-19765.47;4978046;28;45479;-74
2022/10/17 04:18:21;;;;;;;;;4.00;4.00;;;;;20.89;78.16;-19764.94;4994984;27;45462;-75
2022/10/17 04:20:47;;;;;;;;;5.33;5.33;;;;;20.89;78.16;-19764.94;4976056;28;45638;-75
2022/10/17 04:23:12;;;;;;;;;5.00;4.00;;;;;20.89;77.89;-19764.81;4992074;27;45426;-75
2022/10/17 04:25:37;;;;;;;;;4.67;4.67;;;;;20.98;77.84;-19767.34;4992583;27;45447;-75
2022/10/17 04:28:03;;;;;;;;;3.33;3.33;;;;;20.83;77.38;-19763.34;4996450;27;45548;-75
2022/10/17 04:30:28;;;;;;;;;5.00;5.00;;;;;20.90;77.43;-19765.06;4997989;27;45823;-74
2022/10/17 04:32:53;;;;;;;;;5.67;4.00;;;;;20.86;77.23;-19764.13;5001971;27;45374;-75
2022/10/17 04:35:19;;;;;;;;;3.67;3.67;;;;;20.55;77.08;-19756.00;4984673;28;45542;-74
2022/10/17 04:37:44;;;;;;;;;5.33;4.33;;;;;20.84;77.42;-19763.75;4996766;27;45404;-74
2022/10/17 04:40:10;;;;;;;;;4.00;4.00;;;;;20.85;77.49;-19764.00;4992281;27;46353;-75
2022/10/17 04:42:35;;;;;;;;;2.33;2.00;;;;;20.84;77.25;-19763.63;4985460;27;45398;-75
2022/10/17 04:45:01;;;;;;;;;4.33;3.00;;;;;20.68;77.22;-19759.47;4989234;28;45527;-75
2022/10/17 04:47:26;;;;;;;;;7.00;4.33;;;;;20.65;77.05;-19758.81;4996240;27;45265;-74
2022/10/17 04:49:51;;;;;;;;;6.33;5.00;;;;;20.89;77.14;-19764.94;4996279;27;45339;-74
2022/10/17 04:52:17;;;;;;;;;5.67;5.67;;;;;20.87;76.67;-19764.41;4999945;27;45389;-74
2022/10/17 04:54:42;;;;;;;;;6.00;4.00;;;;;20.87;76.36;-19764.41;4996587;27;45275;-74
2022/10/17 04:57:07;;;;;;;;;6.67;4.00;;;;;20.87;76.45;-19764.53;4997237;27;45421;-75
2022/10/17 04:59:33;;;;;;;;;3.33;3.33;;;;;20.89;76.48;-19764.81;4999335;27;45455;-75
2022/10/17 05:01:58;;;;;;;;;5.33;4.00;;;;;20.77;76.64;-19761.75;4984671;27;45558;-75
2022/10/17 05:04:24;;;;;;;;;5.67;5.00;;;;;20.90;76.92;-19765.06;4991145;27;45419;-74
2022/10/17 05:06:49;;;;;;;;;5.00;5.00;;;;;20.90;77.10;-19765.06;4985082;27;45558;-75
2022/10/17 05:09:15;;;;;;;;;5.00;4.00;;;;;20.92;77.54;-19765.75;4993139;28;47357;-75
2022/10/17 05:11:42;;;;;;;;;6.67;4.00;;;;;20.95;78.55;-19766.53;4991855;27;45512;-75
2022/10/17 05:14:07;;;;;;;;;5.00;5.00;;;;;20.95;78.37;-19766.41;5010319;28;45547;-75
2022/10/17 05:16:32;;;;;;;;;6.00;6.00;;;;;20.93;78.90;-19695.72;4989826;27;46891;-75
2022/10/17 05:18:58;;;;;;;;;5.00;5.00;;;;;20.93;78.92;-19038.56;4984887;27;46302;-75
2022/10/17 05:21:25;;;;;;;;;6.67;4.33;;;;;20.94;79.02;-19383.13;4999689;27;45581;-75
2022/10/17 05:23:50;;;;;;;;;5.00;5.00;;;;;20.92;79.28;-19117.28;5002187;27;45349;-75
2022/10/17 05:26:17;;;;;;;;;7.33;6.00;;;;;20.78;79.26;-18795.72;4994114;27;45393;-76
2022/10/17 05:28:42;;;;;;;;;4.00;4.00;;;;;20.98;78.75;-19394.66;5000005;27;46120;-75
2022/10/17 05:31:09;;;;;;;;;5.00;4.67;;;;;20.96;79.20;-19231.31;4993236;27;45351;-72
2022/10/17 05:33:35;;;;;;;;;6.33;4.67;;;;;20.93;78.87;-18878.22;4983814;28;45740;-77
2022/10/17 05:36:00;;;;;;;;;4.67;4.67;;;;;20.96;79.22;-18687.09;4996669;27;45559;-75
2022/10/17 05:38:26;;;;;;;;;6.00;3.67;;;;;20.72;79.32;-18381.66;4987928;27;45631;-76
2022/10/17 05:41:03;;;;;;;;;4.67;4.33;;;;;20.81;79.33;-19022.63;4998977;27;45808;-76
2022/10/17 05:43:28;;;;;;;;;4.00;4.00;;;;;20.98;79.30;-18798.00;4993414;27;45472;-76
2022/10/17 05:45:54;;;;;;;;;3.00;3.00;;;;;21.00;79.48;-18172.78;4997490;27;45512;-76
2022/10/17 05:48:21;;;;;;;;;5.33;5.00;;;;;20.82;79.41;-18568.09;4994602;27;47109;-76
2022/10/17 05:50:46;;;;;;;;;5.00;5.00;;;;;20.85;80.20;-17569.94;4990679;27;45543;-77
2022/10/17 05:53:11;;;;;;;;;6.00;5.00;;;;;20.83;80.68;-16978.03;4991991;27;45884;-76
2022/10/17 05:55:37;;;;;;;;;5.00;4.00;;;;;20.86;80.47;-17352.06;5035297;28;45510;-76
2022/10/17 05:58:02;;;;;;;;;5.00;5.00;;;;;20.95;80.06;-17588.03;4988689;27;45397;-76
2022/10/17 06:00:28;;;;;;;;;6.00;4.00;;;;;20.93;80.10;-17308.84;5003106;27;45585;-76
2022/10/17 06:02:53;;;;;;;;;4.67;4.67;;;;;20.62;80.64;-16671.22;5001644;27;45451;-76
2022/10/17 06:05:19;;;;;;;;;5.00;5.00;;;;;20.73;80.60;-17031.03;4992615;27;45574;-74
2022/10/17 06:07:45;;;;;;;;;4.67;4.67;;;;;20.88;80.46;-16624.03;5000261;27;45449;-74
2022/10/17 06:10:13;;;;;;;;;6.67;6.67;;;;;20.93;81.44;-15152.00;4994000;27;47316;-75
2022/10/17 06:12:39;;;;;;;;;7.67;5.00;;;;;20.64;81.76;-14549.63;5002526;27;45345;-75
2022/10/17 06:15:05;;;;;;;;;5.33;4.67;;;;;20.99;80.73;-16899.81;4990514;27;45525;-75
2022/10/17 06:17:31;;;;;;;;;4.33;3.67;;;;;20.91;81.02;-17282.09;4979129;27;45425;-76
2022/10/17 06:19:56;;;;;;;;;6.00;4.33;;;;;20.78;81.35;-16679.72;4996219;27;45388;-76
2022/10/17 06:22:22;;;;;;;;;7.33;4.33;;;;;20.70;80.67;-17319.50;4979008;28;45298;-79
2022/10/17 06:24:47;;;;;;;;;5.33;5.33;;;;;20.78;80.61;-17334.34;5005460;27;45386;-82
2022/10/17 06:27:13;;;;;;;;;5.00;5.00;;;;;20.81;81.27;-16788.16;4998017;27;46047;-82
2022/10/17 06:29:38;;;;;;;;;4.00;4.00;;;;;20.69;80.90;-16927.63;4972229;28;46821;-81
2022/10/17 06:32:04;;;;;;;;;5.00;5.00;;;;;20.77;81.73;-16250.91;4994056;27;45656;-78
2022/10/17 06:34:29;;;;;;;;;6.33;6.00;;;;;20.75;81.58;-16353.13;5005092;28;45372;-78
2022/10/17 06:36:55;;;;;;;;;6.67;6.00;;;;;20.62;81.29;-16468.69;5002091;27;46118;-82
2022/10/17 06:39:20;;;;;;;;;7.67;5.00;;;;;20.71;81.08;-16573.03;5041542;28;45402;-83
2022/10/17 06:41:45;;;;;;;;;5.33;5.33;;;;;20.70;81.48;-15789.38;4995068;27;45382;-82
2022/10/17 06:44:11;;;;;;;;;6.67;6.00;;;;;20.72;82.20;-15618.75;5004348;27;45504;-73
2022/10/17 06:46:38;;;;;;;;;6.33;4.67;;;;;20.65;82.13;-15791.09;4994711;28;46208;-72
2022/10/17 06:49:03;;;;;;;;;4.67;4.67;;;;;20.66;81.71;-15985.88;4995196;27;45413;-72
2022/10/17 06:51:29;;;;;;;;;6.33;6.00;;;;;20.64;81.73;-15809.22;5004521;27;45345;-77
2022/10/17 06:53:57;;;;;;;;;5.33;5.00;;;;;20.64;82.48;-15251.84;5001347;27;45264;-73
2022/10/17 06:56:23;;;;;;;;;6.00;4.00;;;;;20.63;82.46;-15354.22;5012950;27;45630;-74
2022/10/17 06:58:50;;;;;;;;;6.67;5.00;;;;;20.61;81.65;-16281.81;5031208;27;45582;-73
2022/10/17 07:01:16;;;;;;;;;6.00;6.00;;;;;20.61;81.83;-15947.94;4980080;28;46504;-72
2022/10/17 07:03:42;;;;;;;;;7.00;5.33;;;;;20.60;82.51;-15821.66;4984731;28;45477;-70
2022/10/17 07:06:10;;;;;;;;;4.33;4.33;;;;;20.61;82.74;-15876.97;4979146;27;47418;-71
2022/10/17 07:08:35;;;;;;;;;5.00;4.00;;;;;20.60;82.82;-15579.75;4987075;28;45428;-71
2022/10/17 07:11:12;;;;;;;;;4.33;4.33;;;;;20.61;82.12;-15855.94;4967251;28;45436;-72
2022/10/17 07:13:38;;;;;;;;;4.00;4.00;;;;;20.61;82.65;-15690.28;4986018;27;45309;-72
2022/10/17 07:16:03;;;;;;;;;4.00;4.00;;;;;20.41;82.45;-15331.50;4992084;27;45957;-78
2022/10/17 07:18:29;;;;;;;;;4.67;4.67;;;;;20.63;82.49;-15254.28;4983601;27;45533;-72
2022/10/17 07:20:54;;;;;;;;;5.67;4.67;;;;;20.61;82.66;-15987.47;4998718;27;45525;-72
2022/10/17 07:23:20;;;;;;;;;4.00;4.00;;;;;20.67;82.82;-15478.47;4987355;27;45535;-72
2022/10/17 07:25:46;;;;;;;;;5.00;5.00;;;;;20.60;82.45;-15937.31;4980907;28;47088;-72
2022/10/17 07:28:13;;;;;;;;;4.33;4.33;;;;;20.71;82.71;-16123.53;5002740;27;45504;-72
2022/10/17 07:30:39;;;;;;;;;6.00;6.00;;;;;20.71;82.32;-16244.38;4998938;27;45449;-72
2022/10/17 07:33:04;;;;;;;;;5.33;5.00;;;;;20.45;82.51;-15787.06;5001835;27;45513;-71
2022/10/17 07:35:29;;;;;;;;;5.00;5.00;;;;;20.75;82.35;-15919.25;4993523;28;46234;-73
2022/10/17 07:37:55;;;;;;;;;8.33;5.00;;;;;20.77;82.24;-16187.78;4989094;28;45418;-70
2022/10/17 07:40:20;;;;;;;;;6.00;6.00;;;;;20.81;81.76;-16501.66;5011184;27;45538;-72
2022/10/17 07:42:46;;;;;;;;;6.00;6.00;;;;;20.82;81.98;-16107.31;5071637;27;45418;-72
2022/10/17 07:45:11;;;;;;;;;5.00;5.00;;;;;20.85;81.81;-16426.16;5040818;27;45305;-72
2022/10/17 07:47:36;;;;;;;;;5.00;5.00;;;;;20.82;82.11;-16017.88;4981060;28;45353;-71
2022/10/17 07:50:04;;;;;;;;;7.00;6.00;;;;;20.87;81.76;-16592.25;4995801;28;45321;-72
2022/10/17 07:52:29;;;;;;;;;6.67;5.67;;;;;20.86;81.87;-16536.91;4997274;28;45517;-72
2022/10/17 07:54:54;;;;;;;;;5.00;5.00;;;;;20.85;82.08;-16912.75;4986922;27;45380;-71
2022/10/17 07:57:20;;;;;;;;;5.00;5.00;;;;;20.83;81.82;-17183.13;4973687;28;45373;-71
2022/10/17 07:59:46;;;;;;;;;5.00;5.00;;;;;20.73;81.57;-16949.41;4956865;28;45534;-76
2022/10/17 08:02:22;;;;;;;;;8.00;5.00;;;;;20.62;81.80;-16631.78;4980796;28;45345;-77
2022/10/17 08:04:47;;;;;;;;;4.67;3.33;;;;;20.87;81.69;-16702.81;4973696;28;46191;-77
2022/10/17 08:07:14;;;;;;;;;4.67;4.00;;;;;20.85;81.48;-16860.03;4973548;27;45428;-76
2022/10/17 08:09:40;;;;;;;;;4.00;4.00;;;;;20.84;81.84;-17254.34;4974034;28;45428;-76
2022/10/17 08:12:05;;;;;;;;;4.67;3.67;;;;;20.92;81.71;-16580.06;4956776;28;45642;-76
2022/10/17 08:14:31;;;;;;;;;4.67;4.33;;;;;20.51;81.95;-16652.94;4981365;27;45598;-74
2022/10/17 08:16:57;;;;;;;;;15.33;13.67;;;;;20.83;82.13;-16168.00;4980442;27;45417;-73
2022/10/17 08:19:22;;;;;;;;;12.67;11.33;;;;;20.86;82.03;-16181.78;4977039;27;45476;-73
2022/10/17 08:21:48;;;;;;;;;6.00;5.00;;;;;20.61;82.29;-16234.50;4978054;27;45442;-73
2022/10/17 08:24:14;;;;;;;;;6.00;5.00;;;;;20.96;82.28;-16281.19;4974290;28;45623;-73
2022/10/17 08:26:39;;;;;;;;;6.00;5.00;;;;;21.02;82.12;-16545.38;4986475;28;45335;-73
2022/10/17 08:29:05;;;;;;;;;6.33;6.33;;;;;21.04;81.97;-16798.44;4989315;27;45404;-73
2022/10/17 08:31:30;;;;;;;;;3.33;3.00;;;;;21.10;82.26;-16670.63;4985118;28;45283;-72
2022/10/17 08:33:55;;;;;;;;;5.00;4.00;;;;;20.98;81.97;-16891.72;4993427;27;46265;-72
2022/10/17 08:36:21;;;;;;;;;5.00;5.00;;;;;21.23;81.61;-17149.78;4993462;27;45366;-73
2022/10/17 08:38:46;;;;;;;;;8.00;5.00;;;;;21.29;81.25;-17353.72;4993955;27;45583;-73
2022/10/17 08:41:13;;;;;;;;;6.67;5.33;;;;;21.25;81.01;-17123.91;4993842;28;45540;-73
2022/10/17 08:44:00;;;;;;;;;4.00;3.00;;;;;21.36;81.49;-17639.38;4975034;28;46216;-72
2022/10/17 08:46:33;;;;;;;;;4.00;4.00;;;;;21.47;80.59;-18057.69;4993324;27;45662;-72
2022/10/17 08:49:01;;;;;;;;;3.67;3.67;;;;;21.35;80.77;-17981.03;4993728;27;45356;-72
2022/10/17 08:51:35;;;;;;;;;3.00;3.00;;;;;21.25;80.48;-18252.44;4993845;27;45284;-72
2022/10/17 08:54:07;;;;;;;;;4.75;4.00;;;;;21.60;80.03;-18655.28;4992169;28;48658;-72
2022/10/17 08:56:39;;;;;;;;;3.00;3.00;;;;;21.46;80.10;-18820.44;4993132;28;45401;-72
2022/10/17 08:59:12;;;;;;;;;5.50;4.00;;;;;21.63;80.04;-18869.16;4993650;27;45499;-72
2022/10/17 09:01:56;;;;;;;;;3.50;3.50;;;;;21.55;80.53;-18527.88;4992325;28;45391;-76
2022/10/17 09:04:34;;;;;;;;;3.00;3.00;;;;;21.66;79.90;-18706.91;4993066;28;45610;-76
2022/10/17 09:07:18;;;;;;;;;5.67;5.00;;;;;21.67;79.87;-18825.56;4996270;27;45293;-76
2022/10/17 09:10:04;;;;;;;;;3.67;3.67;;;;;21.69;79.94;-18739.09;4996255;27;45283;-76
2022/10/17 09:12:39;;;;;;;;;3.00;3.00;;;;;21.71;80.35;-18694.97;4996962;27;45367;-76
2022/10/17 09:15:31;;;;;;;;;4.00;4.00;;;;;21.82;80.19;-18673.91;4996275;27;45420;-76
2022/10/17 09:18:01;;;;;;;;;4.00;4.00;;;;;21.70;80.60;-18223.59;4996241;27;45326;-76
2022/10/17 09:20:39;;;;;;;;;3.67;3.67;;;;;21.73;80.44;-17468.69;4996640;27;45422;-75
2022/10/17 09:23:32;;;;;;;;;6.33;3.33;;;;;21.71;80.91;-17402.50;4995612;27;45536;-76
2022/10/17 09:26:00;;;;;;;;;3.00;3.00;;;;;21.75;81.04;-17282.19;4987625;27;45365;-77
2022/10/17 09:28:32;;;;;;;;;4.67;4.00;;;;;21.59;81.09;-16857.41;4996134;27;45327;-76
2022/10/17 09:31:18;;;;;;;;;5.00;4.00;;;;;21.77;81.11;-16713.88;4994926;28;45511;-77
2022/10/17 09:33:45;;;;;;;;;4.33;3.33;;;;;21.78;80.78;-17201.25;4996427;27;45380;-76
2022/10/17 09:36:16;;;;;;;;;6.33;4.67;;;;;21.70;81.42;-16138.38;4995748;27;46150;-76
2022/10/17 09:38:46;;;;;;;;;4.67;4.00;;;;;21.39;82.23;-14892.06;4995647;27;45468;-76
2022/10/17 09:41:22;;;;;;;;;5.00;5.00;;;;;21.77;82.49;-14917.44;5031364;28;45697;-76
2022/10/17 09:43:50;;;;;;;;;4.00;4.00;;;;;21.75;82.86;-14274.06;4990327;27;45607;-76
2022/10/17 09:46:35;;;;;;;;;8.00;5.67;;;;;21.73;83.16;-13630.72;4995934;27;47562;-76
2022/10/17 09:49:05;;;;;;;;;4.67;4.00;;;;;21.67;83.44;-12749.66;4995960;27;45458;-76
2022/10/17 09:51:31;;;;;;;;;4.67;4.67;;;;;21.74;84.01;-12655.66;4995688;27;45412;-77
2022/10/17 09:54:02;;;;;;;;;7.00;5.00;;;;;21.76;84.34;-12263.16;4996022;27;45399;-76
2022/10/17 09:56:28;;;;;;;;;4.00;4.00;;;;;21.69;84.12;-12301.75;4989674;27;45371;-75
2022/10/17 09:58:57;;;;;;;;;5.33;4.67;;;;;21.74;84.99;-11160.75;4988168;27;45314;-76
2022/10/17 10:01:30;;;;;;;;;5.00;5.00;;;;;21.71;85.55;-11334.44;4995862;27;45286;-76
2022/10/17 10:04:16;;;;;;;;;3.00;3.00;;;;;21.70;85.00;-12591.94;4996513;27;45433;-76
2022/10/17 10:07:02;;;;;;;;;7.00;4.00;;;;;21.65;85.17;-12896.88;4982090;27;45460;-76
2022/10/17 10:09:32;;;;;;;;;4.67;4.67;;;;;21.62;86.18;-11821.00;4995441;27;45415;-76
2022/10/17 10:12:03;;;;;;;;;4.00;4.00;;;;;21.48;85.45;-12182.91;4995839;27;45538;-76
2022/10/17 10:14:29;;;;;;;;;7.33;5.33;;;;;21.60;85.94;-12405.88;4995950;27;45317;-76
2022/10/17 10:16:54;;;;;;;;;6.33;4.33;;;;;21.60;86.65;-11443.78;5027866;27;46090;-76
2022/10/17 10:19:33;;;;;;;;;6.00;5.00;;;;;21.61;86.95;-10734.59;5034595;27;45566;-76
2022/10/17 10:22:01;;;;;;;;;3.33;3.33;;;;;21.45;87.31;-9274.66;4981777;27;45432;-75
2022/10/17 10:24:28;;;;;;;;;4.67;4.67;;;;;21.56;87.06;-10594.25;4995585;27;45256;-77
2022/10/17 10:26:58;;;;;;;;;4.00;4.00;;;;;21.52;87.00;-9934.63;4994014;27;46489;-87
2022/10/17 10:29:29;;;;;;;;;4.33;4.33;;;;;21.41;87.49;-9878.09;4965855;28;45562;-80
2022/10/17 10:32:17;;;;;;;;;6.33;5.33;;;;;21.32;88.53;-9763.78;5025538;27;45665;-77
2022/10/17 10:34:58;;;;;;;;;5.00;5.00;;;;;21.23;88.72;-10124.00;4984455;28;45406;-77
2022/10/17 10:37:32;;;;;;;;;6.00;6.00;;;;;21.04;90.32;-9587.06;4964106;27;46875;-77
2022/10/17 10:40:22;;;;;;;;;5.00;5.00;;;;;21.05;91.70;-9431.72;4997779;27;45606;-76
2022/10/17 10:42:50;;;;;;;;;6.00;6.00;;;;;21.00;91.37;-9913.44;4981476;27;45456;-76
2022/10/17 10:45:28;;;;;;;;;8.00;6.00;;;;;20.95;92.79;-9580.88;4990867;28;45434;-76
2022/10/17 10:47:57;;;;;;;;;5.33;5.33;;;;;20.89;92.32;-8942.69;4976942;27;46312;-76
2022/10/17 10:50:42;;;;;;;;;6.33;4.33;;;;;20.56;94.51;-10232.66;4977725;28;45364;-75
2022/10/17 10:53:28;;;;;;;;;9.67;6.67;;;;;20.78;94.28;-9484.41;4994338;27;45472;-76
2022/10/17 10:55:59;;;;;;;;;9.00;8.00;;;;;20.85;95.32;-9730.13;4966981;28;45749;-71
2022/10/17 10:58:58;;;;;;;;;8.00;8.00;;;;;20.95;94.72;-10063.03;4979121;27;46222;-72
2022/10/17 11:02:07;;;;;;;;;8.67;8.67;;;;;21.04;94.80;-10298.56;4963860;28;45461;-71
2022/10/17 11:04:43;;;;;;;;;5.67;5.67;;;;;21.11;94.96;-10604.91;5011101;28;45445;-71
2022/10/17 11:07:39;;;;;;;;;7.67;7.67;;;;;21.12;94.01;-11477.09;5011489;28;45604;-71
2022/10/17 11:10:17;;;;;;;;;8.33;8.33;;;;;21.12;94.86;-11909.16;5011607;28;46813;-71
2022/10/17 11:13:05;;;;;;;;;6.67;6.00;;;;;21.13;94.69;-12193.78;5014370;28;45386;-71
2022/10/17 11:15:47;;;;;;;;;6.67;6.67;;;;;21.15;93.92;-12460.00;5014275;28;45379;-71
2022/10/17 11:18:35;;;;;;;;;8.33;7.00;;;;;21.16;97.82;-13708.38;4998201;28;45573;-72
2022/10/17 11:21:18;;;;;;;;;5.33;5.33;;;;;21.16;100.00;-13034.34;5011119;28;45495;-71
2022/10/17 11:23:50;;;;;;;;;6.00;6.00;;;;;21.22;100.00;-14720.41;5014738;28;45527;-71
2022/10/17 11:26:25;;;;;;;;;7.00;7.00;;;;;21.26;100.00;-15058.13;5014628;28;45587;-72
2022/10/17 11:28:56;;;;;;;;;8.00;6.67;;;;;21.12;100.00;-15729.16;5012225;28;45478;-72
2022/10/17 11:31:26;;;;;;;;;7.00;7.00;;;;;21.37;100.00;-16408.00;5004672;28;46375;-71
2022/10/17 11:33:55;;;;;;;;;8.33;7.67;;;;;21.50;100.00;-16410.66;5014813;28;45395;-71
2022/10/17 11:36:26;;;;;;;;;7.00;6.00;;;;;21.20;100.00;-16741.31;5014848;28;45422;-71
2022/10/17 11:39:10;;;;;;;;;6.67;6.67;;;;;21.46;100.00;-16409.81;5015238;28;45311;-71
2022/10/17 11:41:53;;;;;;;;;7.00;6.00;;;;;21.57;97.06;-17086.09;5021096;27;47390;-72